GLET14 YPLM-YPLM

Flight info

Callsign GLET14
Flight time 0h 44m
Altitude 1000
Route VFR
Aircraft H60/L-VGD/A

Departure

Time 2026-04-24 09:09
Airport Learmonth Airport (YPLM)

Arrival

Time 2026-04-24 09:53
Airport Learmonth Airport (YPLM)
Time Latitude Longitude Altitude Speed Heading
2026-04-24 09:01 -22.23951 114.09331 24 ft 0 kts 130°
2026-04-24 09:03 -22.23952 114.09328 29 ft 4 kts 142°
2026-04-24 09:04 -22.23990 114.09095 59 ft 56 kts 245°
2026-04-24 09:04 -22.24223 114.08693 47 ft 75 kts 219°
2026-04-24 09:04 -22.24633 114.08411 66 ft 46 kts 130°
2026-04-24 09:04 -22.24651 114.08441 34 ft 0 kts 11°
2026-04-24 09:06 -22.24651 114.08440 34 ft 0 kts 11°
2026-04-24 09:07 -22.24882 114.08500 166 ft 67 kts 188°
2026-04-24 09:08 -22.24901 114.08263 183 ft 89 kts 34°
2026-04-24 09:08 -22.24328 114.08771 250 ft 119 kts 27°
2026-04-24 09:08 -22.23432 114.08968 253 ft 140 kts 11°
2026-04-24 09:08 -22.22432 114.09135 281 ft 150 kts
2026-04-24 09:09 -22.21360 114.09380 393 ft 161 kts 15°
2026-04-24 09:09 -22.20305 114.09822 518 ft 160 kts 23°
2026-04-24 09:09 -22.19355 114.10269 852 ft 131 kts 26°
2026-04-24 09:09 -22.18546 114.10729 1038 ft 135 kts 28°
2026-04-24 09:10 -22.17739 114.11222 1310 ft 132 kts 31°
2026-04-24 09:10 -22.16950 114.11809 1407 ft 134 kts 36°
2026-04-24 09:10 -22.16494 114.12189 1565 ft 129 kts 41°
2026-04-24 09:10 -22.15875 114.12849 1690 ft 133 kts 47°
2026-04-24 09:11 -22.15161 114.13530 1720 ft 143 kts 37°
2026-04-24 09:11 -22.14278 114.14105 1779 ft 145 kts 25°
2026-04-24 09:11 -22.13340 114.14479 1987 ft 135 kts 20°
2026-04-24 09:11 -22.12462 114.14826 2134 ft 134 kts 18°
2026-04-24 09:12 -22.11577 114.15102 2318 ft 134 kts 12°
2026-04-24 09:12 -22.10662 114.15266 2347 ft 146 kts
2026-04-24 09:12 -22.09614 114.15218 2291 ft 155 kts 360°
2026-04-24 09:12 -22.08550 114.15352 2308 ft 155 kts
2026-04-24 09:13 -22.07472 114.15497 2307 ft 156 kts
2026-04-24 09:13 -22.06386 114.15638 2306 ft 157 kts
2026-04-24 09:13 -22.05298 114.15815 2294 ft 158 kts 12°
2026-04-24 09:13 -22.04224 114.16058 2306 ft 157 kts 11°
2026-04-24 09:14 -22.03142 114.16309 2309 ft 157 kts 11°
2026-04-24 09:14 -22.02074 114.16554 2307 ft 157 kts 11°
2026-04-24 09:14 -22.01054 114.16793 2519 ft 143 kts 12°
2026-04-24 09:14 -22.00055 114.17017 2557 ft 148 kts 11°
2026-04-24 09:15 -21.99020 114.17244 2569 ft 153 kts 10°
2026-04-24 09:15 -21.97970 114.17484 2567 ft 155 kts 11°
2026-04-24 09:15 -21.96904 114.17725 2567 ft 156 kts 11°
2026-04-24 09:15 -21.95838 114.17963 2569 ft 157 kts 10°
2026-04-24 09:16 -21.94763 114.18212 2570 ft 156 kts 11°
2026-04-24 09:16 -21.93704 114.18444 2572 ft 156 kts 10°
2026-04-24 09:16 -21.92624 114.18681 2569 ft 156 kts 10°
2026-04-24 09:16 -21.91563 114.18919 2571 ft 155 kts 10°
2026-04-24 09:17 -21.90496 114.19154 2568 ft 155 kts 11°
2026-04-24 09:17 -21.89441 114.19393 2568 ft 155 kts 11°
2026-04-24 09:17 -21.88375 114.19637 2568 ft 155 kts 11°
2026-04-24 09:17 -21.87315 114.19883 2565 ft 155 kts 11°
2026-04-24 09:18 -21.86264 114.20126 2546 ft 156 kts 10°
2026-04-24 09:18 -21.85193 114.20367 2538 ft 156 kts 10°
2026-04-24 09:18 -21.84127 114.20579 2531 ft 156 kts
2026-04-24 09:18 -21.83035 114.20461 2524 ft 158 kts 351°
2026-04-24 09:19 -21.81935 114.20309 2520 ft 157 kts 351°
2026-04-24 09:19 -21.80842 114.20157 2518 ft 157 kts 351°
2026-04-24 09:19 -21.79742 114.19994 2405 ft 166 kts 351°
2026-04-24 09:19 -21.78593 114.19843 2440 ft 147 kts 351°
2026-04-24 09:20 -21.77736 114.19715 2904 ft 125 kts 351°
2026-04-24 09:20 -21.76811 114.19571 2954 ft 138 kts 350°
2026-04-24 09:20 -21.75819 114.19424 2906 ft 151 kts 351°
2026-04-24 09:20 -21.74715 114.19264 2684 ft 166 kts 351°
2026-04-24 09:21 -21.73601 114.19106 2709 ft 159 kts 351°
2026-04-24 09:21 -21.72483 114.18955 2600 ft 164 kts 351°
2026-04-24 09:21 -21.71302 114.18795 2242 ft 179 kts 350°
2026-04-24 09:21 -21.70040 114.18569 1903 ft 183 kts 336°
2026-04-24 09:22 -21.68897 114.17983 1531 ft 188 kts 336°
2026-04-24 09:22 -21.67699 114.17497 1399 ft 177 kts 335°
2026-04-24 09:22 -21.66569 114.17042 1377 ft 167 kts 335°
2026-04-24 09:22 -21.65488 114.16605 1375 ft 163 kts 335°
2026-04-24 09:23 -21.64435 114.16174 1374 ft 160 kts 335°
2026-04-24 09:23 -21.63388 114.15746 1376 ft 159 kts 336°
2026-04-24 09:23 -21.62364 114.15324 1377 ft 159 kts 335°
2026-04-24 09:23 -21.61318 114.14891 1379 ft 159 kts 336°
2026-04-24 09:24 -21.60280 114.14468 1376 ft 159 kts 336°
2026-04-24 09:24 -21.59256 114.14072 1300 ft 147 kts 335°
2026-04-24 09:24 -21.58349 114.13729 1274 ft 130 kts 334°
2026-04-24 09:24 -21.57553 114.13460 1304 ft 116 kts 338°
2026-04-24 09:25 -21.56675 114.13155 1201 ft 152 kts 338°
2026-04-24 09:25 -21.55658 114.12650 1155 ft 163 kts 327°
2026-04-24 09:25 -21.54720 114.12020 711 ft 155 kts 316°
2026-04-24 09:25 -21.53986 114.11351 318 ft 116 kts 311°
2026-04-24 09:26 -21.53297 114.11137 294 ft 88 kts
2026-04-24 09:26 -21.53310 114.11520 234 ft 68 kts 160°
2026-04-24 09:26 -21.53727 114.11581 266 ft 49 kts 167°
2026-04-24 09:26 -21.53993 114.11620 196 ft 27 kts 166°
2026-04-24 09:27 -21.54090 114.11629 142 ft 9 kts 186°
2026-04-24 09:27 -21.54103 114.11627 120 ft 0 kts 188°
2026-04-24 09:27 -21.54088 114.11624 190 ft 12 kts 198°
2026-04-24 09:28 -21.53851 114.11294 170 ft 77 kts 340°
2026-04-24 09:28 -21.53591 114.11507 184 ft 46 kts 144°
2026-04-24 09:28 -21.53834 114.11622 175 ft 31 kts 174°
2026-04-24 09:28 -21.53970 114.11590 139 ft 29 kts 163°
2026-04-24 09:29 -21.54107 114.11533 170 ft 23 kts 76°
2026-04-24 09:29 -21.54164 114.11599 167 ft 9 kts 15°
2026-04-24 09:29 -21.54059 114.11755 359 ft 53 kts 22°
2026-04-24 09:29 -21.53811 114.12021 633 ft 47 kts 318°
2026-04-24 09:30 -21.53765 114.11913 337 ft 61 kts 223°
2026-04-24 09:30 -21.54120 114.11382 407 ft 105 kts 242°
2026-04-24 09:30 -21.54019 114.10627 336 ft 50 kts 216°
2026-04-24 09:30 -21.53897 114.10603 458 ft 47 kts 57°
2026-04-24 09:31 -21.53613 114.10964 362 ft 72 kts 46°
2026-04-24 09:31 -21.53354 114.11391 333 ft 68 kts 75°
2026-04-24 09:31 -21.53415 114.11816 270 ft 49 kts 142°
2026-04-24 09:31 -21.53825 114.11749 248 ft 90 kts 206°
2026-04-24 09:32 -21.54509 114.11896 312 ft 113 kts 72°
2026-04-24 09:32 -21.54098 114.11516 306 ft 105 kts 254°
2026-04-24 09:32 -21.53875 114.11549 287 ft 61 kts 157°
2026-04-24 09:32 -21.54078 114.11630 140 ft 17 kts 179°
2026-04-24 09:33 -21.54106 114.11627 120 ft 0 kts 186°
2026-04-24 09:33 -21.54103 114.11620 163 ft 5 kts 175°
2026-04-24 09:33 -21.54050 114.11548 237 ft 29 kts 280°
2026-04-24 09:33 -21.53946 114.11661 179 ft 64 kts 185°
2026-04-24 09:34 -21.54474 114.11707 520 ft 90 kts 176°
2026-04-24 09:34 -21.54794 114.11410 1022 ft 116 kts 293°
2026-04-24 09:34 -21.54064 114.11671 308 ft 143 kts 70°
2026-04-24 09:34 -21.53679 114.11732 445 ft 118 kts 216°
2026-04-24 09:35 -21.54453 114.11433 379 ft 135 kts 201°
2026-04-24 09:35 -21.55342 114.10929 612 ft 151 kts 206°
2026-04-24 09:35 -21.56332 114.11034 664 ft 159 kts 150°
2026-04-24 09:35 -21.57114 114.11942 551 ft 162 kts 126°
2026-04-24 09:36 -21.57512 114.12502 510 ft 93 kts 274°
2026-04-24 09:36 -21.57616 114.12006 197 ft 106 kts 143°
2026-04-24 09:36 -21.57833 114.12836 415 ft 122 kts 106°
2026-04-24 09:36 -21.58170 114.13719 532 ft 139 kts 113°
2026-04-24 09:37 -21.58765 114.14622 467 ft 153 kts 127°
2026-04-24 09:37 -21.59414 114.15550 477 ft 156 kts 126°
2026-04-24 09:37 -21.60077 114.16495 476 ft 158 kts 126°
2026-04-24 09:37 -21.60735 114.17436 476 ft 158 kts 126°
2026-04-24 09:38 -21.61402 114.18388 478 ft 159 kts 126°
2026-04-24 09:38 -21.62069 114.19325 476 ft 159 kts 125°
2026-04-24 09:38 -21.62745 114.20275 474 ft 159 kts 126°
2026-04-24 09:38 -21.63418 114.21211 475 ft 159 kts 126°
2026-04-24 09:39 -21.64093 114.22163 473 ft 159 kts 126°
2026-04-24 09:39 -21.64762 114.23106 477 ft 159 kts 127°
2026-04-24 09:39 -21.65661 114.23772 461 ft 155 kts 150°
2026-04-24 09:39 -21.66630 114.24309 472 ft 156 kts 150°
2026-04-24 09:40 -21.67602 114.24841 471 ft 157 kts 151°
2026-04-24 09:40 -21.68588 114.25385 472 ft 158 kts 151°
2026-04-24 09:40 -21.69637 114.25643 388 ft 160 kts 187°
2026-04-24 09:40 -21.70682 114.25262 462 ft 155 kts 196°
2026-04-24 09:41 -21.71694 114.24871 472 ft 155 kts 195°
2026-04-24 09:41 -21.72712 114.24474 471 ft 156 kts 196°
2026-04-24 09:41 -21.73742 114.24068 472 ft 156 kts 195°
2026-04-24 09:41 -21.74765 114.23666 475 ft 156 kts 196°
2026-04-24 09:42 -21.75794 114.23265 473 ft 156 kts 196°
2026-04-24 09:42 -21.76816 114.22874 475 ft 157 kts 196°
2026-04-24 09:42 -21.77817 114.22388 410 ft 162 kts 215°
2026-04-24 09:42 -21.78663 114.21621 468 ft 157 kts 216°
2026-04-24 09:43 -21.79512 114.20850 472 ft 158 kts 216°
2026-04-24 09:43 -21.80342 114.20092 471 ft 158 kts 216°
2026-04-24 09:43 -21.81191 114.19330 483 ft 157 kts 212°
2026-04-24 09:43 -21.82096 114.18645 479 ft 158 kts 211°
2026-04-24 09:44 -21.82997 114.17963 478 ft 159 kts 211°
2026-04-24 09:44 -21.83902 114.17275 476 ft 159 kts 211°
2026-04-24 09:44 -21.84801 114.16584 479 ft 158 kts 211°
2026-04-24 09:44 -21.85697 114.15897 478 ft 158 kts 211°
2026-04-24 09:45 -21.86644 114.15317 494 ft 156 kts 192°
2026-04-24 09:45 -21.87714 114.15007 479 ft 157 kts 191°
2026-04-24 09:45 -21.88765 114.14703 480 ft 157 kts 191°
2026-04-24 09:45 -21.89827 114.14397 477 ft 157 kts 191°
2026-04-24 09:46 -21.90910 114.14191 465 ft 158 kts 189°
2026-04-24 09:46 -21.91995 114.14177 480 ft 156 kts 176°
2026-04-24 09:46 -21.93094 114.14198 478 ft 157 kts 176°
2026-04-24 09:46 -21.94195 114.14201 459 ft 158 kts 181°
2026-04-24 09:47 -21.95279 114.14017 470 ft 156 kts 186°
2026-04-24 09:47 -21.96348 114.13837 474 ft 157 kts 186°
2026-04-24 09:47 -21.97439 114.13654 476 ft 157 kts 186°
2026-04-24 09:47 -21.98527 114.13470 480 ft 157 kts 186°
2026-04-24 09:48 -21.99604 114.13274 474 ft 158 kts 188°
2026-04-24 09:48 -22.00659 114.12879 475 ft 158 kts 196°
2026-04-24 09:48 -22.01685 114.12480 475 ft 158 kts 196°
2026-04-24 09:48 -22.02731 114.12078 479 ft 158 kts 195°
2026-04-24 09:49 -22.03767 114.11679 480 ft 157 kts 196°
2026-04-24 09:49 -22.04808 114.11293 485 ft 157 kts 194°
2026-04-24 09:49 -22.05894 114.11101 485 ft 157 kts 186°
2026-04-24 09:49 -22.06981 114.10924 482 ft 157 kts 186°
2026-04-24 09:50 -22.08056 114.10749 480 ft 156 kts 186°
2026-04-24 09:50 -22.09144 114.10571 484 ft 156 kts 186°
2026-04-24 09:50 -22.10215 114.10396 483 ft 156 kts 186°
2026-04-24 09:50 -22.11299 114.10220 483 ft 156 kts 186°
2026-04-24 09:51 -22.12374 114.10047 484 ft 156 kts 186°
2026-04-24 09:51 -22.13450 114.09876 484 ft 156 kts 186°
2026-04-24 09:51 -22.14529 114.09711 488 ft 156 kts 186°
2026-04-24 09:51 -22.15611 114.09542 491 ft 156 kts 186°
2026-04-24 09:52 -22.16686 114.09376 488 ft 156 kts 185°
2026-04-24 09:52 -22.17739 114.09163 573 ft 156 kts 191°
2026-04-24 09:52 -22.18856 114.08991 436 ft 164 kts 180°
2026-04-24 09:52 -22.20001 114.08948 227 ft 164 kts 180°
2026-04-24 09:53 -22.21137 114.08890 74 ft 164 kts 182°
2026-04-24 09:53 -22.22282 114.08806 38 ft 159 kts 181°
2026-04-24 09:53 -22.23320 114.08732 27 ft 125 kts 177°
2026-04-24 09:53 -22.23855 114.08697 26 ft 34 kts 184°
2026-04-24 09:54 -22.24138 114.08646 40 ft 70 kts 202°
2026-04-24 09:54 -22.24621 114.08345 84 ft 66 kts 139°
2026-04-24 09:54 -22.24639 114.08453 34 ft 0 kts
2026-04-24 09:56 -22.24636 114.08457 42 ft 9 kts
2026-04-24 09:57 -22.24372 114.08634 124 ft 77 kts 25°
2026-04-24 09:57 -22.24264 114.08276 94 ft 102 kts 198°
2026-04-24 09:57 -22.24659 114.08515 33 ft 12 kts 288°
2026-04-24 09:57 -22.24660 114.08528 33 ft 0 kts 282°
2026-04-24 09:58 -22.24660 114.08529 33 ft 0 kts 281°